Time;durP1;ratioP1;P1;durP2;ratioP2;P2;SDS_P1;SDS_P2;PMS_P1;PMS_P2;Temp;Humidity;BMP_temperature;BMP_pressure;BME280_temperature;BME280_humidity;BME280_pressure;Samples;Min_cycle;Max_cycle;Signal;HPM_P1;HPM_P2
2023/09/23 00:00:38;;;;;;;;;;;;;;;13.79;100.00;100641.56;5235167;28;20043;-75
2023/09/23 00:03:09;;;;;;;;;;;;;;;13.80;100.00;100637.09;5235895;28;19917;-75
2023/09/23 00:05:40;;;;;;;;;;;;;;;13.76;100.00;100641.84;5235771;28;20389;-75
2023/09/23 00:08:12;;;;;;;;;;;;;;;13.74;100.00;100641.19;5235957;28;20267;-74
2023/09/23 00:10:44;;;;;;;;;;;;;;;13.73;100.00;100654.50;5236326;28;19921;-74
2023/09/23 00:13:16;;;;;;;;;;;;;;;13.73;100.00;100651.88;5234449;28;19960;-74
2023/09/23 00:15:49;;;;;;;;;;;;;;;13.70;100.00;100650.38;5234852;28;20397;-74
2023/09/23 00:18:21;;;;;;;;;;;;;;;13.71;100.00;100651.19;5235242;28;19947;-74
2023/09/23 00:20:52;;;;;;;;;;;;;;;13.70;100.00;100647.72;5216699;28;20348;-74
2023/09/23 00:23:23;;;;;;;;;;;;;;;13.69;100.00;100647.91;5234955;28;19917;-75
2023/09/23 00:25:54;;;;;;;;;;;;;;;13.65;100.00;100650.00;5235178;28;19967;-74
2023/09/23 00:28:28;;;;;;;;;;;;;;;13.64;100.00;100645.75;5232711;28;21826;-75
2023/09/23 00:31:10;;;;;;;;;;;;;;;13.64;100.00;100651.00;5234858;28;19987;-74
2023/09/23 00:33:41;;;;;;;;;;;;;;;13.63;100.00;100654.59;5236518;28;20457;-74
2023/09/23 00:36:14;;;;;;;;;;;;;;;13.61;100.00;100657.41;5235271;28;20015;-75
2023/09/23 00:38:45;;;;;;;;;;;;;;;13.59;100.00;100659.34;5235795;28;19943;-74
2023/09/23 00:41:17;;;;;;;;;;;;;;;13.59;100.00;100658.53;5236135;28;19921;-74
2023/09/23 00:43:50;;;;;;;;;;;;;;;13.56;100.00;100664.09;5236191;28;19929;-74
2023/09/23 00:46:21;;;;;;;;;;;;;;;13.58;100.00;100673.50;5233443;28;19925;-74
2023/09/23 00:48:53;;;;;;;;;;;;;;;13.59;100.00;100676.94;5218000;28;20389;-75
2023/09/23 00:51:24;;;;;;;;;;;;;;;13.59;100.00;100671.69;5235329;28;19967;-74
2023/09/23 00:53:57;;;;;;;;;;;;;;;13.59;100.00;100672.50;5236738;28;19921;-75
2023/09/23 00:56:30;;;;;;;;;;;;;;;13.57;100.00;100673.66;5234726;28;19924;-74
2023/09/23 00:59:05;;;;;;;;;;;;;;;13.57;100.00;100676.28;5235179;28;20317;-75
2023/09/23 01:01:39;;;;;;;;;;;;;;;13.54;100.00;100669.50;5235812;28;20306;-75
2023/09/23 01:04:13;;;;;;;;;;;;;;;13.53;100.00;100674.94;5235888;28;20172;-74
2023/09/23 01:06:44;;;;;;;;;;;;;;;13.52;100.00;100676.72;5236007;28;19975;-73
2023/09/23 01:09:19;;;;;;;;;;;;;;;13.55;100.00;100688.75;5235055;28;19924;-75
2023/09/23 01:11:51;;;;;;;;;;;;;;;13.54;100.00;100676.59;5235482;28;20000;-74
2023/09/23 01:14:22;;;;;;;;;;;;;;;13.53;100.00;100691.56;5234671;28;20019;-75
2023/09/23 01:16:53;;;;;;;;;;;;;;;13.56;100.00;100686.00;5233734;28;19925;-75
2023/09/23 01:19:27;;;;;;;;;;;;;;;13.56;100.00;100687.78;5234472;28;20008;-75
2023/09/23 01:21:58;;;;;;;;;;;;;;;13.58;100.00;100699.00;5235633;28;20256;-74
2023/09/23 01:24:30;;;;;;;;;;;;;;;13.59;100.00;100700.63;5234238;28;20358;-75
2023/09/23 01:27:03;;;;;;;;;;;;;;;13.61;100.00;100693.44;5234071;28;20394;-75
2023/09/23 01:29:35;;;;;;;;;;;;;;;13.60;100.00;100700.50;5234475;28;19933;-75
2023/09/23 01:32:17;;;;;;;;;;;;;;;13.59;100.00;100700.63;5235848;28;19921;-74
2023/09/23 01:34:49;;;;;;;;;;;;;;;13.59;100.00;100711.97;5233319;28;19976;-73
2023/09/23 01:37:21;;;;;;;;;;;;;;;13.61;100.00;100709.22;5234757;28;20015;-74
2023/09/23 01:39:52;;;;;;;;;;;;;;;13.61;100.00;100710.03;5234393;28;19917;-74
2023/09/23 01:42:23;;;;;;;;;;;;;;;13.62;100.00;100706.41;5234459;28;20382;-74
2023/09/23 01:44:57;;;;;;;;;;;;;;;13.64;100.00;100708.91;5234014;28;20372;-74
2023/09/23 01:47:28;;;;;;;;;;;;;;;13.66;100.00;100717.47;5233836;28;19931;-74
2023/09/23 01:49:59;;;;;;;;;;;;;;;13.66;100.00;100717.47;5233286;28;19916;-74
2023/09/23 01:52:31;;;;;;;;;;;;;;;13.67;100.00;100711.22;5234854;28;19917;-73
2023/09/23 01:55:04;;;;;;;;;;;;;;;13.66;100.00;100714.84;5233870;28;19928;-74
2023/09/23 01:57:36;;;;;;;;;;;;;;;13.68;100.00;100719.97;5234387;28;19928;-74
2023/09/23 02:00:08;;;;;;;;;;;;;;;13.63;100.00;100723.84;5234501;28;20374;-74
2023/09/23 02:02:40;;;;;;;;;;;;;;;13.63;100.00;100729.13;5235118;28;20350;-75
2023/09/23 02:05:12;;;;;;;;;;;;;;;13.59;100.00;100721.69;5238532;28;19917;-74
2023/09/23 02:07:45;;;;;;;;;;;;;;;13.58;100.00;100720.06;5238029;28;19950;-74
2023/09/23 02:10:17;;;;;;;;;;;;;;;13.58;100.00;100728.78;5238600;28;19924;-74
2023/09/23 02:12:48;;;;;;;;;;;;;;;13.59;100.00;100729.59;5238764;28;19924;-74
2023/09/23 02:15:20;;;;;;;;;;;;;;;13.58;100.00;100733.22;5238446;28;19917;-74
2023/09/23 02:17:51;;;;;;;;;;;;;;;13.52;100.00;100734.63;5238461;28;19928;-75
2023/09/23 02:20:22;;;;;;;;;;;;;;;13.52;100.00;100739.88;5240218;28;20022;-75
2023/09/23 02:22:54;;;;;;;;;;;;;;;13.50;100.00;100736.59;5239340;28;19928;-74
2023/09/23 02:25:25;;;;;;;;;;;;;;;13.46;100.00;100735.25;5237766;28;19921;-74
2023/09/23 02:27:57;;;;;;;;;;;;;;;13.46;100.00;100743.16;5237737;28;20019;-74
2023/09/23 02:30:28;;;;;;;;;;;;;;;13.49;100.00;100756.00;5236395;28;19925;-75
2023/09/23 02:33:00;;;;;;;;;;;;;;;13.49;100.00;100749.94;5238485;28;20023;-75
2023/09/23 02:35:31;;;;;;;;;;;;;;;13.48;100.00;100749.06;5238668;28;19913;-74
2023/09/23 02:38:03;;;;;;;;;;;;;;;13.47;100.00;100757.13;5238318;28;19924;-75
2023/09/23 02:40:35;;;;;;;;;;;;;;;13.45;100.00;100762.56;5237001;28;20309;-74
2023/09/23 02:43:06;;;;;;;;;;;;;;;13.41;100.00;100773.50;5237749;28;19921;-75
2023/09/23 02:45:37;;;;;;;;;;;;;;;13.40;100.00;100770.06;5238781;28;19971;-75
2023/09/23 02:48:08;;;;;;;;;;;;;;;13.41;100.00;100771.72;5237171;28;19925;-74
2023/09/23 02:50:40;;;;;;;;;;;;;;;13.38;100.00;100770.22;5238210;28;20515;-74
2023/09/23 02:53:11;;;;;;;;;;;;;;;13.37;100.00;100765.94;5238714;28;20374;-74
2023/09/23 02:55:51;;;;;;;;;;;;;;;13.37;100.00;100771.19;5236125;28;19921;-75
2023/09/23 02:58:23;;;;;;;;;;;;;;;13.35;100.00;100778.41;5235038;28;20397;-75
2023/09/23 03:00:57;;;;;;;;;;;;;;;13.35;100.00;100767.88;5238294;28;19921;-74
2023/09/23 03:03:30;;;;;;;;;;;;;;;13.32;100.00;100789.22;5237581;28;19921;-74
2023/09/23 03:06:06;;;;;;;;;;;;;;;13.34;100.00;100782.03;5236947;28;19980;-74
2023/09/23 03:08:38;;;;;;;;;;;;;;;13.35;100.00;100786.31;5219045;28;19970;-75
2023/09/23 03:11:13;;;;;;;;;;;;;;;13.33;100.00;100780.38;5237383;28;19921;-75
2023/09/23 03:13:44;;;;;;;;;;;;;;;13.30;100.00;100779.84;5237139;28;19917;-74
2023/09/23 03:16:28;;;;;;;;;;;;;;;13.30;100.00;100780.66;5235920;28;20309;-75
2023/09/23 03:19:24;;;;;;;;;;;;;;;13.27;100.00;100786.22;5236764;28;19921;-75
2023/09/23 03:21:57;;;;;;;;;;;;;;;13.31;100.00;100789.38;5236620;28;19921;-74
2023/09/23 03:24:29;;;;;;;;;;;;;;;13.30;100.00;100783.31;5219330;28;19921;-74
2023/09/23 03:27:01;;;;;;;;;;;;;;;13.28;100.00;100790.50;5237415;28;19921;-74
2023/09/23 03:29:33;;;;;;;;;;;;;;;13.31;100.00;100794.66;5237210;28;19925;-74
2023/09/23 03:32:04;;;;;;;;;;;;;;;13.31;100.00;100795.47;5235406;28;19967;-74
2023/09/23 03:34:37;;;;;;;;;;;;;;;13.30;100.00;100793.81;5238246;28;20345;-75
2023/09/23 03:37:09;;;;;;;;;;;;;;;13.32;100.00;100801.56;5236926;28;19920;-75
2023/09/23 03:39:41;;;;;;;;;;;;;;;13.30;100.00;100798.25;5235268;28;19963;-74
2023/09/23 03:42:13;;;;;;;;;;;;;;;13.28;100.00;100808.09;5236014;28;20903;-75
2023/09/23 03:44:44;;;;;;;;;;;;;;;13.27;100.00;100811.72;5235810;28;19917;-74
2023/09/23 03:47:15;;;;;;;;;;;;;;;13.27;100.00;100807.28;5218130;28;20754;-74
2023/09/23 03:49:47;;;;;;;;;;;;;;;13.28;100.00;100802.84;5224672;28;19921;-74
2023/09/23 03:52:18;;;;;;;;;;;;;;;13.29;100.00;100813.19;5240065;28;20540;-74
2023/09/23 03:54:49;;;;;;;;;;;;;;;13.29;100.00;100821.09;5235799;28;19925;-74
2023/09/23 03:57:20;;;;;;;;;;;;;;;13.28;100.00;100818.63;5236881;28;20377;-74
2023/09/23 03:59:51;;;;;;;;;;;;;;;13.29;100.00;100815.00;5236060;28;19921;-74
2023/09/23 04:02:23;;;;;;;;;;;;;;;13.24;100.00;100807.56;5234818;28;19949;-75
2023/09/23 04:04:54;;;;;;;;;;;;;;;13.31;100.00;100816.53;5235714;28;19913;-75
2023/09/23 04:07:25;;;;;;;;;;;;;;;13.29;100.00;100815.81;5235926;28;19925;-75
2023/09/23 04:09:56;;;;;;;;;;;;;;;13.30;100.00;100817.50;5235080;28;19917;-74
2023/09/23 04:12:28;;;;;;;;;;;;;;;13.36;100.00;100818.69;5217697;28;19925;-75
2023/09/23 04:14:59;;;;;;;;;;;;;;;13.37;100.00;100823.84;5235760;28;19921;-75
2023/09/23 04:17:30;;;;;;;;;;;;;;;13.34;100.00;100829.38;5235719;28;20015;-75
2023/09/23 04:20:03;;;;;;;;;;;;;;;13.34;100.00;100828.56;5235702;28;20136;-75
2023/09/23 04:22:36;;;;;;;;;;;;;;;13.34;100.00;100837.28;5235672;28;20393;-74
2023/09/23 04:25:08;;;;;;;;;;;;;;;13.38;100.00;100838.63;5235351;28;19921;-75
2023/09/23 04:27:40;;;;;;;;;;;;;;;13.35;100.00;100846.00;5234042;28;19931;-74
2023/09/23 04:30:11;;;;;;;;;;;;;;;13.33;100.00;100855.81;5236308;28;20393;-75
2023/09/23 04:32:42;;;;;;;;;;;;;;;13.34;100.00;100858.34;5236575;28;19928;-75
2023/09/23 04:35:17;;;;;;;;;;;;;;;13.34;100.00;100853.06;5234238;28;19921;-74
2023/09/23 04:37:48;;;;;;;;;;;;;;;13.32;100.00;100857.63;5234467;28;20046;-74
2023/09/23 04:40:19;;;;;;;;;;;;;;;13.33;100.00;100868.97;5233715;28;20640;-75
2023/09/23 04:42:50;;;;;;;;;;;;;;;13.34;100.00;100863.59;5234552;28;20546;-75
2023/09/23 04:45:23;;;;;;;;;;;;;;;13.34;100.00;100868.84;5235235;28;19927;-75
2023/09/23 04:47:55;;;;;;;;;;;;;;;13.35;100.00;100873.13;5233901;28;19932;-74
2023/09/23 04:50:28;;;;;;;;;;;;;;;13.35;100.00;100869.69;5235030;28;19921;-75
2023/09/23 04:52:59;;;;;;;;;;;;;;;13.31;100.00;100871.78;5236052;28;19924;-75
2023/09/23 04:55:32;;;;;;;;;;;;;;;13.32;100.00;100870.78;5235368;28;19924;-75
2023/09/23 04:58:04;;;;;;;;;;;;;;;13.32;100.00;100876.06;5235898;28;19921;-75
2023/09/23 05:00:36;;;;;;;;;;;;;;;13.20;100.00;100885.09;5235052;28;19917;-75
2023/09/23 05:03:08;;;;;;;;;;;;;;;13.23;100.00;100884.84;5236232;28;20436;-75
2023/09/23 05:05:39;;;;;;;;;;;;;;;13.23;100.00;100890.09;5235547;28;19925;-74
2023/09/23 05:08:11;;;;;;;;;;;;;;;13.21;100.00;100896.44;5234186;28;20371;-75
2023/09/23 05:10:42;;;;;;;;;;;;;;;13.20;100.00;100903.50;5233935;28;20286;-74
2023/09/23 05:13:17;;;;;;;;;;;;;;;13.20;100.00;100900.06;5233941;28;19921;-75
2023/09/23 05:15:48;;;;;;;;;;;;;;;13.16;100.00;100912.66;5235367;28;20221;-75
2023/09/23 05:18:19;;;;;;;;;;;;;;;13.15;100.00;100914.47;5234820;28;19925;-75
2023/09/23 05:20:50;;;;;;;;;;;;;;;13.13;100.00;100920.84;5235301;28;20305;-75
2023/09/23 05:23:23;;;;;;;;;;;;;;;13.13;100.00;100915.59;5236016;28;19921;-74
2023/09/23 05:25:57;;;;;;;;;;;;;;;13.13;100.00;100931.38;5234214;28;19917;-75
2023/09/23 05:28:28;;;;;;;;;;;;;;;13.11;100.00;100928.06;5232900;28;19928;-75
2023/09/23 05:31:00;;;;;;;;;;;;;;;13.09;100.00;100943.16;5234132;28;20350;-74
2023/09/23 05:33:31;;;;;;;;;;;;;;;13.10;100.00;100947.44;5234279;28;19921;-75
2023/09/23 05:36:03;;;;;;;;;;;;;;;13.09;100.00;100946.59;5234129;28;20512;-74
2023/09/23 05:38:36;;;;;;;;;;;;;;;13.09;100.00;100956.31;5235404;28;19975;-74
2023/09/23 05:41:07;;;;;;;;;;;;;;;13.08;100.00;100958.09;5236437;28;19921;-74
2023/09/23 05:43:39;;;;;;;;;;;;;;;13.10;100.00;100956.16;5238948;28;20007;-75
2023/09/23 05:46:12;;;;;;;;;;;;;;;13.08;100.00;100960.75;5238377;28;19929;-74
2023/09/23 05:48:43;;;;;;;;;;;;;;;13.10;100.00;100971.94;5238643;28;20007;-75
2023/09/23 05:51:15;;;;;;;;;;;;;;;13.09;100.00;100972.91;5230565;28;20011;-75
2023/09/23 05:53:46;;;;;;;;;;;;;;;13.09;100.00;100972.09;5237734;28;19966;-75
2023/09/23 05:56:18;;;;;;;;;;;;;;;13.07;100.00;100979.31;5238520;28;19924;-75
2023/09/23 05:58:50;;;;;;;;;;;;;;;13.05;100.00;100982.06;5237524;28;19921;-75
2023/09/23 06:01:21;;;;;;;;;;;;;;;13.08;100.00;100986.22;5236075;28;19921;-74
2023/09/23 06:03:52;;;;;;;;;;;;;;;13.10;100.00;100992.16;5239808;28;20413;-73
2023/09/23 06:06:23;;;;;;;;;;;;;;;13.12;100.00;100993.66;5238715;28;19967;-74
2023/09/23 06:08:56;;;;;;;;;;;;;;;13.13;100.00;101003.22;5238418;28;19932;-74
2023/09/23 06:11:27;;;;;;;;;;;;;;;13.12;100.00;101006.00;5238871;28;19932;-75
2023/09/23 06:13:58;;;;;;;;;;;;;;;13.10;100.00;101015.81;5237908;28;19925;-75
2023/09/23 06:16:30;;;;;;;;;;;;;;;13.13;100.00;101018.16;5244601;28;19913;-73
2023/09/23 06:19:01;;;;;;;;;;;;;;;13.14;100.00;101027.72;5239891;28;19936;-74
2023/09/23 06:21:32;;;;;;;;;;;;;;;13.10;100.00;101039.50;5239096;28;20357;-73
2023/09/23 06:24:03;;;;;;;;;;;;;;;13.18;100.00;101033.53;5237920;28;19921;-73
2023/09/23 06:26:34;;;;;;;;;;;;;;;13.21;100.00;101035.88;5240143;28;19975;-74
2023/09/23 06:29:06;;;;;;;;;;;;;;;13.26;100.00;101041.56;5236967;28;19921;-73
2023/09/23 06:31:37;;;;;;;;;;;;;;;13.31;100.00;101045.44;5236414;28;19917;-74
2023/09/23 06:34:08;;;;;;;;;;;;;;;13.37;100.00;101044.03;5235693;28;19948;-73
2023/09/23 06:36:39;;;;;;;;;;;;;;;13.41;100.00;101050.69;5218152;28;20016;-74
2023/09/23 06:39:11;;;;;;;;;;;;;;;13.42;100.00;101054.97;5235813;28;19932;-74
2023/09/23 06:41:42;;;;;;;;;;;;;;;13.46;100.00;101055.50;5236667;28;20413;-74
2023/09/23 06:44:13;;;;;;;;;;;;;;;13.47;100.00;101057.16;5236798;28;19921;-74
2023/09/23 06:46:45;;;;;;;;;;;;;;;13.49;100.00;101060.50;5237962;28;19976;-74
2023/09/23 06:49:16;;;;;;;;;;;;;;;13.51;100.00;101061.16;5237675;28;20432;-73
2023/09/23 06:51:48;;;;;;;;;;;;;;;13.52;100.00;101068.91;5238718;28;20400;-74
2023/09/23 06:54:19;;;;;;;;;;;;;;;13.53;100.00;101070.59;5237857;28;19921;-74
2023/09/23 06:56:53;;;;;;;;;;;;;;;13.59;100.00;101080.53;5235726;28;19917;-74
2023/09/23 06:59:24;;;;;;;;;;;;;;;13.64;100.00;101074.84;5235598;28;20138;-74
2023/09/23 07:01:55;;;;;;;;;;;;;;;13.68;100.00;101084.13;5235928;28;20401;-73
2023/09/23 07:04:26;;;;;;;;;;;;;;;13.78;100.00;101084.06;5236649;28;19921;-74
2023/09/23 07:06:57;;;;;;;;;;;;;;;13.82;100.00;101086.25;5236460;28;19933;-73
2023/09/23 07:09:30;;;;;;;;;;;;;;;13.85;100.00;101085.97;5235207;28;21459;-74
2023/09/23 07:12:01;;;;;;;;;;;;;;;13.88;100.00;101093.59;5235060;28;19925;-74
2023/09/23 07:14:33;;;;;;;;;;;;;;;13.93;100.00;101090.50;5236958;28;19921;-74
2023/09/23 07:17:06;;;;;;;;;;;;;;;13.96;100.00;101097.28;5237495;28;20016;-74
2023/09/23 07:19:37;;;;;;;;;;;;;;;13.98;100.00;101104.09;5234167;28;19921;-74
2023/09/23 07:22:08;;;;;;;;;;;;;;;13.98;100.00;101106.72;5235492;28;19928;-74
2023/09/23 07:24:39;;;;;;;;;;;;;;;14.03;100.00;101119.44;5235710;28;20640;-74
2023/09/23 07:27:11;;;;;;;;;;;;;;;14.05;100.00;101128.03;5236980;28;19921;-74
2023/09/23 07:29:42;;;;;;;;;;;;;;;14.09;100.00;101119.72;5233095;28;19917;-73
2023/09/23 07:32:13;;;;;;;;;;;;;;;14.19;100.00;101118.81;5235809;28;19928;-74
2023/09/23 07:34:45;;;;;;;;;;;;;;;14.17;100.00;101115.47;5236333;28;20394;-74
2023/09/23 07:37:17;;;;;;;;;;;;;;;14.20;100.00;101141.53;5235580;28;19921;-74
2023/09/23 07:39:48;;;;;;;;;;;;;;;14.31;100.00;101139.53;5234820;28;19932;-73
2023/09/23 07:42:19;;;;;;;;;;;;;;;14.36;100.00;101145.22;5238344;28;19927;-73
2023/09/23 07:44:50;;;;;;;;;;;;;;;14.41;100.00;101136.88;5236865;28;19960;-72
2023/09/23 07:47:21;;;;;;;;;;;;;;;14.46;100.00;101146.97;5233662;28;19925;-73
2023/09/23 07:49:53;;;;;;;;;;;;;;;14.56;100.00;101155.69;5235944;28;19921;-73
2023/09/23 07:52:24;;;;;;;;;;;;;;;14.63;100.00;101151.47;5220108;28;19943;-73
2023/09/23 07:54:55;;;;;;;;;;;;;;;14.71;100.00;101161.28;5236340;28;19928;-73
2023/09/23 07:57:26;;;;;;;;;;;;;;;14.79;100.00;101156.91;5234055;28;19921;-73
2023/09/23 07:59:58;;;;;;;;;;;;;;;14.92;100.00;101171.53;5233610;28;19978;-74
2023/09/23 08:02:30;;;;;;;;;;;;;;;15.01;100.00;101157.44;5225884;28;19965;-74
2023/09/23 08:05:03;;;;;;;;;;;;;;;15.09;100.00;101168.06;5235078;28;20306;-74
2023/09/23 08:07:34;;;;;;;;;;;;;;;15.15;100.00;101171.91;5219467;28;19921;-74
2023/09/23 08:10:05;;;;;;;;;;;;;;;15.22;100.00;101175.59;5238282;28;20328;-74
2023/09/23 08:12:37;;;;;;;;;;;;;;;15.28;100.00;101191.66;5232761;28;19921;-75
2023/09/23 08:15:08;;;;;;;;;;;;;;;15.35;100.00;101186.59;5236845;28;19925;-74
2023/09/23 08:17:40;;;;;;;;;;;;;;;15.41;100.00;101196.53;5235347;28;19917;-74
2023/09/23 08:20:17;;;;;;;;;;;;;;;15.46;100.00;101194.28;5240089;28;20010;-74
2023/09/23 08:22:49;;;;;;;;;;;;;;;15.55;100.00;101197.81;5238174;28;19931;-74
2023/09/23 08:25:20;;;;;;;;;;;;;;;15.57;100.00;101201.13;5237150;28;20358;-74
2023/09/23 08:27:53;;;;;;;;;;;;;;;15.67;100.00;101211.63;5235368;28;20426;-74
2023/09/23 08:30:25;;;;;;;;;;;;;;;15.73;100.00;101208.38;5237622;28;20009;-76
2023/09/23 08:32:56;;;;;;;;;;;;;;;15.73;100.00;101217.13;5233830;28;19920;-74
2023/09/23 08:35:28;;;;;;;;;;;;;;;15.75;100.00;101211.66;5234591;28;19928;-74
2023/09/23 08:37:59;;;;;;;;;;;;;;;15.81;100.00;101211.06;5237205;28;20024;-74
2023/09/23 08:40:33;;;;;;;;;;;;;;;15.85;100.00;101219.50;5236189;28;19921;-74
2023/09/23 08:43:04;;;;;;;;;;;;;;;15.96;100.00;101230.66;5237979;28;20015;-74
2023/09/23 08:45:46;;;;;;;;;;;;;;;16.07;100.00;101239.31;5240670;28;20465;-77
2023/09/23 08:48:17;;;;;;;;;;;;;;;16.20;100.00;101248.44;5239586;28;19925;-75
2023/09/23 08:50:51;;;;;;;;;;;;;;;16.30;100.00;101243.88;5242078;28;20353;-74
2023/09/23 08:53:26;;;;;;;;;;;;;;;16.45;100.00;101246.75;5237524;28;20382;-74
2023/09/23 08:55:58;;;;;;;;;;;;;;;16.53;100.00;101256.56;5237118;28;20193;-75
2023/09/23 08:58:30;;;;;;;;;;;;;;;16.55;100.00;101270.44;5236641;28;19921;-76
2023/09/23 09:01:02;;;;;;;;;;;;;;;16.63;100.00;101267.84;5235392;28;20424;-74
2023/09/23 09:03:34;;;;;;;;;;;;;;;16.71;100.00;101259.13;5237072;28;19921;-74
2023/09/23 09:06:18;;;;;;;;;;;;;;;16.75;100.00;101268.41;5235426;28;19925;-75
2023/09/23 09:08:49;;;;;;;;;;;;;;;16.83;100.00;101263.16;5237095;28;19929;-74
2023/09/23 09:11:22;;;;;;;;;;;;;;;16.87;100.00;101261.00;5233854;28;19920;-75
2023/09/23 09:13:53;;;;;;;;;;;;;;;16.99;100.00;101272.94;5235287;28;19921;-74
2023/09/23 09:16:27;;;;;;;;;;;;;;;17.13;100.00;101267.03;5233827;28;19931;-74
2023/09/23 09:18:58;;;;;;;;;;;;;;;17.28;100.00;101275.16;5233491;28;19924;-74
2023/09/23 09:21:31;;;;;;;;;;;;;;;17.30;100.00;101283.75;5235022;28;19925;-74
2023/09/23 09:24:04;;;;;;;;;;;;;;;17.22;100.00;101297.00;5233282;28;19932;-74
2023/09/23 09:26:35;;;;;;;;;;;;;;;17.17;100.00;101296.66;5239594;28;19922;-74
2023/09/23 09:29:07;;;;;;;;;;;;;;;17.19;100.00;101300.78;5240243;28;19944;-75
2023/09/23 09:31:41;;;;;;;;;;;;;;;17.08;100.00;101303.72;5239716;28;20055;-74
2023/09/23 09:34:13;;;;;;;;;;;;;;;17.00;100.00;101298.41;5240256;28;20345;-74
2023/09/23 09:36:44;;;;;;;;;;;;;;;17.03;100.00;101295.44;5239927;28;19923;-74
2023/09/23 09:39:19;;;;;;;;;;;;;;;17.12;100.00;101301.59;5221146;28;20298;-75
2023/09/23 09:41:53;;;;;;;;;;;;;;;17.10;100.00;101306.22;5238625;28;19921;-76
2023/09/23 09:44:27;;;;;;;;;;;;;;;17.17;100.00;101308.06;5240090;28;19921;-74
2023/09/23 09:46:59;;;;;;;;;;;;;;;17.06;100.00;101316.31;5226595;28;20074;-76
2023/09/23 09:49:31;;;;;;;;;;;;;;;17.12;100.00;101315.69;5222532;28;19925;-75
2023/09/23 09:52:03;;;;;;;;;;;;;;;17.08;100.00;101306.38;5220948;28;19913;-74
2023/09/23 09:54:36;;;;;;;;;;;;;;;17.15;100.00;101315.34;5222938;28;19917;-75
2023/09/23 09:57:12;;;;;;;;;;;;;;;17.21;100.00;101317.34;5219985;28;19928;-75
2023/09/23 09:59:44;;;;;;;;;;;;;;;17.23;100.00;101323.28;5214264;28;19916;-74
2023/09/23 10:02:15;;;;;;;;;;;;;;;17.30;100.00;101322.66;5213571;28;19964;-76
2023/09/23 10:04:51;;;;;;;;;;;;;;;17.35;100.00;101323.00;5218844;28;20525;-75
2023/09/23 10:07:22;;;;;;;;;;;;;;;17.41;100.00;101322.34;5211989;28;20024;-76
2023/09/23 10:09:58;;;;;;;;;;;;;;;17.43;100.00;101329.16;5211602;28;19921;-75
2023/09/23 10:12:31;;;;;;;;;;;;;;;17.45;100.00;101326.31;5214806;28;19921;-75
2023/09/23 10:15:03;;;;;;;;;;;;;;;17.59;100.00;101332.81;5212247;28;19927;-74
2023/09/23 10:17:36;;;;;;;;;;;;;;;17.71;100.00;101329.66;5215901;28;20539;-75
2023/09/23 10:20:15;;;;;;;;;;;;;;;17.77;100.00;101335.31;5215893;28;20000;-74
2023/09/23 10:22:52;;;;;;;;;;;;;;;17.90;100.00;101335.66;5212053;28;19922;-74
2023/09/23 10:25:35;;;;;;;;;;;;;;;17.98;100.00;101339.13;5216567;28;19929;-74
2023/09/23 10:28:07;;;;;;;;;;;;;;;18.01;100.00;101343.28;5215060;28;19952;-75
2023/09/23 10:30:38;;;;;;;;;;;;;;;17.97;100.00;101337.50;5219420;28;19917;-75
2023/09/23 10:33:10;;;;;;;;;;;;;;;17.95;100.00;101349.25;5216023;28;20314;-74
2023/09/23 10:35:41;;;;;;;;;;;;;;;17.85;100.00;101340.66;5217201;28;19917;-74
2023/09/23 10:38:19;;;;;;;;;;;;;;;17.92;100.00;101358.38;5220990;28;19941;-76
2023/09/23 10:40:52;;;;;;;;;;;;;;;17.96;100.00;101353.56;5224022;28;19921;-75
2023/09/23 10:43:24;;;;;;;;;;;;;;;18.04;100.00;101353.56;5221343;28;20336;-74
2023/09/23 10:45:58;;;;;;;;;;;;;;;18.12;100.00;101363.34;5228244;28;19964;-74
2023/09/23 10:48:29;;;;;;;;;;;;;;;18.22;100.00;101362.19;5243542;28;19952;-74
2023/09/23 10:51:01;;;;;;;;;;;;;;;18.24;100.00;101372.59;5243319;28;19917;-76
2023/09/23 10:53:32;;;;;;;;;;;;;;;18.18;100.00;101374.13;5238734;28;19975;-74
2023/09/23 10:56:04;;;;;;;;;;;;;;;18.20;100.00;101376.59;5237467;28;19928;-74
2023/09/23 10:58:36;;;;;;;;;;;;;;;18.21;100.00;101378.22;5237550;28;19922;-74
2023/09/23 11:01:07;;;;;;;;;;;;;;;18.21;100.00;101386.19;5235067;28;20079;-74
2023/09/23 11:03:42;;;;;;;;;;;;;;;18.19;100.00;101389.03;5239068;28;20389;-75
2023/09/23 11:06:16;;;;;;;;;;;;;;;18.23;100.00;101385.03;5240266;28;19925;-74
2023/09/23 11:08:48;;;;;;;;;;;;;;;18.19;100.00;101383.72;5239318;28;20012;-75
2023/09/23 11:11:20;;;;;;;;;;;;;;;18.28;100.00;101400.44;5237836;28;19931;-74
2023/09/23 11:13:54;;;;;;;;;;;;;;;18.43;100.00;101396.13;5237567;28;19924;-74
2023/09/23 11:16:26;;;;;;;;;;;;;;;18.52;100.00;101404.06;5237796;28;19979;-75
2023/09/23 11:19:05;;;;;;;;;;;;;;;18.66;100.00;101401.56;5238843;28;20067;-75
2023/09/23 11:21:46;;;;;;;;;;;;;;;18.73;100.00;101408.88;5237421;28;19924;-75
2023/09/23 11:24:18;;;;;;;;;;;;;;;18.67;100.00;101405.03;5238362;28;19926;-74
2023/09/23 11:26:49;;;;;;;;;;;;;;;18.75;100.00;101407.69;5237944;28;20282;-75
2023/09/23 11:29:20;;;;;;;;;;;;;;;18.96;100.00;101415.94;5237262;28;19921;-75
2023/09/23 11:31:52;;;;;;;;;;;;;;;19.06;100.00;101417.56;5240469;28;19925;-76
2023/09/23 11:34:23;;;;;;;;;;;;;;;19.06;100.00;101417.56;5221002;28;19921;-76
2023/09/23 11:36:54;;;;;;;;;;;;;;;19.06;100.00;101417.56;5235815;28;19978;-76
2023/09/23 11:39:25;;;;;;;;;;;;;;;19.09;100.00;101418.06;5236878;28;20016;-75
2023/09/23 11:41:57;;;;;;;;;;;;;;;19.24;100.00;101419.97;5237712;28;19927;-75
2023/09/23 11:44:28;;;;;;;;;;;;;;;19.41;100.00;101425.03;5238200;28;19924;-76
2023/09/23 11:47:00;;;;;;;;;;;;;;;19.53;100.00;101429.97;5237079;28;20002;-75
2023/09/23 11:49:31;;;;;;;;;;;;;;;19.52;100.00;101431.81;5236480;28;19917;-75
2023/09/23 11:52:12;;;;;;;;;;;;;;;19.49;100.00;101442.78;5236880;28;19921;-76
2023/09/23 11:54:44;;;;;;;;;;;;;;;19.40;100.00;101441.19;5238189;28;20508;-76
2023/09/23 11:57:15;;;;;;;;;;;;;;;19.39;100.00;101452.78;5235416;28;19921;-76
2023/09/23 11:59:46;;;;;;;;;;;;;;;19.45;100.00;101446.78;5232529;28;19924;-76
2023/09/23 12:02:19;;;;;;;;;;;;;;;19.40;100.00;101463.25;5235118;28;19921;-75
2023/09/23 12:04:50;;;;;;;;;;;;;;;19.25;100.00;101462.31;5235341;28;19947;-75
2023/09/23 12:07:23;;;;;;;;;;;;;;;19.17;100.00;101467.66;5232241;28;19925;-76
2023/09/23 12:09:54;;;;;;;;;;;;;;;19.04;100.00;101464.72;5236648;28;19967;-76
2023/09/23 12:12:26;;;;;;;;;;;;;;;18.93;100.00;101479.16;5231878;28;20000;-76
2023/09/23 12:14:58;;;;;;;;;;;;;;;18.86;100.00;101484.31;5229983;28;19979;-76
2023/09/23 12:17:29;;;;;;;;;;;;;;;18.84;100.00;101483.69;5233918;28;19917;-76
2023/09/23 12:20:01;;;;;;;;;;;;;;;18.84;100.00;101483.69;5233113;28;19921;-75
2023/09/23 12:22:32;;;;;;;;;;;;;;;18.89;100.00;101481.34;5232708;28;19975;-76
2023/09/23 12:25:06;;;;;;;;;;;;;;;18.94;100.00;101480.81;5232398;28;20481;-76
2023/09/23 12:27:37;;;;;;;;;;;;;;;18.99;100.00;101483.81;5233188;28;20104;-76
2023/09/23 12:30:08;;;;;;;;;;;;;;;19.01;100.00;101500.38;5233762;28;20019;-75
2023/09/23 12:32:40;;;;;;;;;;;;;;;19.00;100.00;101501.41;5235394;28;20103;-76
2023/09/23 12:35:11;;;;;;;;;;;;;;;18.88;100.00;101505.41;5233508;28;20404;-76
2023/09/23 12:37:42;;;;;;;;;;;;;;;18.81;100.00;101509.72;5232415;28;20327;-75
2023/09/23 12:40:13;;;;;;;;;;;;;;;18.78;100.00;101510.06;5232365;28;19928;-75
2023/09/23 12:42:44;;;;;;;;;;;;;;;18.78;100.00;101513.53;5231963;28;20483;-75
2023/09/23 12:45:16;;;;;;;;;;;;;;;18.76;100.00;101512.88;5233346;28;19927;-75
2023/09/23 12:47:47;;;;;;;;;;;;;;;18.74;100.00;101519.34;5234136;28;19925;-76
2023/09/23 12:50:18;;;;;;;;;;;;;;;18.70;100.00;101522.34;5235313;28;19925;-76
2023/09/23 12:52:50;;;;;;;;;;;;;;;18.69;100.00;101531.28;5233243;28;20032;-75